createdAt,value
2018-10-21T00:01:08.665Z,51.70
2018-10-21T00:03:37.864Z,51.33
2018-10-21T00:06:07.045Z,34.00
2018-10-21T00:08:36.268Z,35.70
2018-10-21T00:11:05.306Z,32.60
2018-10-21T00:13:34.852Z,27.00
2018-10-21T00:16:04.073Z,35.73
2018-10-21T00:18:36.875Z,42.50
2018-10-21T00:21:06.689Z,36.50
2018-10-21T00:23:36.082Z,42.83
2018-10-21T00:26:05.432Z,33.10
2018-10-21T00:28:34.511Z,27.80
2018-10-21T00:31:03.767Z,35.20
2018-10-21T00:33:33.014Z,40.97
2018-10-21T00:36:02.351Z,45.37
2018-10-21T00:38:31.462Z,72.33
2018-10-21T00:41:00.629Z,54.33
2018-10-21T00:43:29.859Z,35.80
2018-10-21T00:45:59.078Z,41.27
2018-10-21T00:48:28.394Z,45.57
2018-10-21T00:50:57.814Z,49.43
2018-10-21T00:53:27.171Z,50.97
2018-10-21T00:55:56.302Z,36.10
2018-10-21T00:58:27.581Z,37.17
2018-10-21T01:00:56.660Z,43.70
2018-10-21T01:03:26.032Z,40.90
2018-10-21T01:05:55.298Z,34.40
2018-10-21T01:08:24.566Z,41.87
2018-10-21T01:10:53.627Z,30.43
2018-10-21T01:13:23.069Z,36.47
2018-10-21T01:15:52.221Z,59.07
2018-10-21T01:18:21.551Z,36.13
2018-10-21T01:20:50.614Z,35.57
2018-10-21T01:23:19.964Z,57.47
2018-10-21T01:25:49.341Z,34.53
2018-10-21T01:28:18.441Z,59.53
2018-10-21T01:30:47.514Z,42.20
2018-10-21T01:33:17.403Z,48.17
2018-10-21T01:35:46.489Z,33.60
2018-10-21T01:38:15.643Z,39.10
2018-10-21T01:40:45.889Z,35.23
2018-10-21T01:43:16.553Z,44.13
2018-10-21T01:45:45.717Z,41.43
2018-10-21T01:48:16.066Z,36.47
2018-10-21T01:50:45.528Z,46.73
2018-10-21T01:53:15.578Z,36.83
2018-10-21T01:55:44.687Z,42.50
2018-10-21T01:58:13.775Z,49.93
2018-10-21T02:00:43.293Z,39.13
2018-10-21T02:03:12.392Z,39.20
2018-10-21T02:05:42.178Z,46.87
2018-10-21T02:08:11.414Z,49.53
2018-10-21T02:10:40.542Z,44.30
2018-10-21T02:13:09.712Z,46.23
2018-10-21T02:15:38.816Z,40.10
2018-10-21T02:18:08.075Z,49.47
2018-10-21T02:20:37.201Z,48.93
2018-10-21T02:23:06.616Z,42.03
2018-10-21T02:25:35.981Z,38.57
2018-10-21T02:28:05.138Z,40.17
2018-10-21T02:30:34.625Z,41.07
2018-10-21T02:33:04.103Z,49.47
2018-10-21T02:35:33.256Z,36.97
2018-10-21T02:38:03.582Z,38.47
2018-10-21T02:42:41.755Z,42.63
2018-10-21T02:45:14.782Z,38.30
2018-10-21T02:47:44.092Z,41.80
2018-10-21T02:50:15.809Z,36.97
2018-10-21T02:52:48.597Z,46.53
2018-10-21T02:55:18.718Z,45.93
2018-10-21T02:57:48.147Z,39.20
2018-10-21T03:00:23.784Z,50.93
2018-10-21T03:02:54.275Z,69.63
2018-10-21T03:05:25.889Z,92.70
2018-10-21T03:08:03.299Z,56.40
2018-10-21T03:13:21.661Z,84.17
2018-10-21T03:15:58.243Z,64.57
2018-10-21T03:18:41.735Z,73.77
2018-10-21T03:21:15.128Z,51.33
2018-10-21T03:23:46.997Z,82.30
2018-10-21T03:26:17.139Z,69.90
2018-10-21T03:28:46.889Z,55.67
2018-10-21T03:31:18.457Z,66.07
2018-10-21T03:33:50.742Z,71.17
2018-10-21T03:36:26.623Z,56.10
2018-10-21T03:39:08.585Z,62.00
2018-10-21T03:41:42.511Z,51.97
2018-10-21T03:44:33.078Z,59.63
2018-10-21T03:47:03.077Z,59.10
2018-10-21T03:49:42.256Z,77.07
2018-10-21T03:54:52.822Z,56.47
2018-10-21T03:57:23.272Z,54.27
2018-10-21T04:03:13.901Z,57.17
2018-10-21T04:08:25.269Z,62.77
2018-10-21T04:13:33.524Z,54.47
2018-10-21T04:16:05.648Z,66.30
2018-10-21T04:18:45.645Z,71.70
2018-10-21T04:21:23.705Z,62.27
2018-10-21T04:23:56.918Z,64.00
2018-10-21T04:40:28.876Z,67.97
2018-10-21T04:42:58.932Z,86.43
2018-10-21T04:45:28.496Z,62.10
2018-10-21T04:48:10.919Z,44.17
2018-10-21T04:50:49.154Z,52.37
2018-10-21T04:53:23.836Z,62.10
2018-10-21T04:55:56.805Z,61.70
2018-10-21T04:58:35.322Z,53.97
2018-10-21T05:01:07.825Z,62.07
2018-10-21T05:03:47.051Z,73.63
2018-10-21T05:06:24.038Z,54.40
2018-10-21T05:12:38.615Z,47.53
2018-10-21T05:15:14.362Z,52.73
2018-10-21T05:18:01.676Z,56.40
2018-10-21T05:20:35.993Z,70.13
2018-10-21T05:23:16.362Z,77.53
2018-10-21T05:26:02.650Z,57.93
2018-10-21T05:28:42.486Z,51.53
2018-10-21T05:31:19.610Z,45.77
2018-10-21T05:34:04.473Z,68.33
2018-10-21T05:37:14.341Z,51.93
2018-10-21T05:39:54.146Z,56.80
2018-10-21T05:42:25.800Z,58.67
2018-10-21T05:59:29.873Z,61.60
2018-10-21T06:01:59.286Z,66.83
2018-10-21T06:04:28.551Z,73.83
2018-10-21T06:06:57.995Z,90.57
2018-10-21T06:09:27.381Z,75.87
2018-10-21T06:11:57.611Z,70.83
2018-10-21T06:14:26.994Z,68.43
2018-10-21T06:17:06.305Z,73.47
2018-10-21T06:19:39.905Z,74.70
2018-10-21T06:22:09.163Z,61.00
2018-10-21T06:24:38.349Z,55.03
2018-10-21T06:27:07.669Z,87.53
2018-10-21T06:29:37.811Z,72.03
2018-10-21T06:32:07.032Z,66.83
2018-10-21T06:34:36.060Z,70.60
2018-10-21T06:37:05.311Z,77.20
2018-10-21T06:39:34.776Z,77.40
2018-10-21T06:42:03.922Z,101.60
2018-10-21T06:44:32.948Z,84.53
2018-10-21T06:47:01.988Z,74.13
2018-10-21T06:49:32.294Z,76.53
2018-10-21T06:52:01.200Z,81.47
2018-10-21T06:54:30.331Z,67.20
2018-10-21T06:56:59.442Z,66.33
2018-10-21T06:59:28.591Z,63.33
2018-10-21T07:01:57.523Z,82.87
2018-10-21T07:04:26.589Z,59.50
2018-10-21T07:06:55.507Z,62.17
2018-10-21T07:09:24.401Z,48.57
2018-10-21T07:11:53.381Z,52.70
2018-10-21T07:14:22.616Z,58.53
2018-10-21T07:16:51.705Z,53.87
2018-10-21T07:19:20.731Z,62.60
2018-10-21T07:21:49.787Z,62.27
2018-10-21T07:24:19.014Z,55.80
2018-10-21T07:26:48.311Z,57.30
2018-10-21T07:29:18.556Z,61.33
2018-10-21T07:31:47.591Z,77.60
2018-10-21T07:34:16.936Z,54.93
2018-10-21T07:36:45.870Z,62.57
2018-10-21T07:39:15.035Z,48.83
2018-10-21T07:41:44.081Z,57.40
2018-10-21T07:44:13.372Z,46.70
2018-10-21T07:46:42.423Z,45.90
2018-10-21T07:49:11.757Z,43.30
2018-10-21T07:51:41.101Z,50.37
2018-10-21T07:54:10.048Z,39.23
2018-10-21T07:56:39.244Z,41.47
2018-10-21T07:59:08.147Z,58.30
2018-10-21T08:01:37.065Z,33.40
2018-10-21T08:04:06.545Z,32.77
2018-10-21T08:06:46.271Z,33.80
2018-10-21T08:09:15.287Z,27.00
2018-10-21T08:11:44.338Z,34.50
2018-10-21T08:14:13.303Z,39.57
2018-10-21T08:16:42.475Z,43.37
2018-10-21T08:19:11.579Z,35.33
2018-10-21T08:21:40.826Z,35.33
2018-10-21T08:24:10.208Z,27.60
2018-10-21T08:26:39.214Z,40.40
2018-10-21T08:29:08.278Z,37.77
2018-10-21T08:31:37.473Z,48.23
2018-10-21T08:34:06.543Z,49.70
2018-10-21T08:36:35.348Z,42.70
2018-10-21T08:39:05.790Z,38.23
2018-10-21T08:41:34.985Z,51.90
2018-10-21T08:44:04.226Z,42.20
2018-10-21T08:46:33.439Z,45.83
2018-10-21T08:49:02.328Z,63.50
2018-10-21T08:51:31.211Z,44.03
2018-10-21T08:54:00.220Z,50.83
2018-10-21T08:56:29.256Z,71.17
2018-10-21T08:58:58.883Z,50.87
2018-10-21T09:01:27.847Z,53.77
2018-10-21T09:03:57.156Z,42.20
2018-10-21T09:06:26.302Z,49.80
2018-10-21T09:08:55.588Z,35.87
2018-10-21T09:11:24.607Z,45.77
2018-10-21T09:13:53.839Z,45.90
2018-10-21T09:16:22.920Z,44.30
2018-10-21T09:18:51.963Z,71.07
2018-10-21T09:21:21.073Z,58.80
2018-10-21T09:23:50.317Z,59.50
2018-10-21T09:26:19.198Z,49.97
2018-10-21T09:28:48.145Z,50.07
2018-10-21T09:31:17.171Z,56.50
2018-10-21T09:33:46.231Z,57.50
2018-10-21T09:36:15.289Z,41.33
2018-10-21T09:38:44.597Z,52.47
2018-10-21T09:41:14.744Z,61.13
2018-10-21T09:43:43.747Z,46.77
2018-10-21T09:46:12.992Z,53.83
2018-10-21T09:48:42.144Z,48.33
2018-10-21T09:51:11.204Z,47.70
2018-10-21T09:53:40.498Z,59.27
2018-10-21T09:56:09.639Z,66.70
2018-10-21T09:58:38.755Z,56.47
2018-10-21T10:01:12.826Z,41.17
2018-10-21T10:03:41.942Z,62.37
2018-10-21T10:06:11.116Z,47.00
2018-10-21T10:08:40.310Z,47.90
2018-10-21T10:11:09.455Z,36.63
2018-10-21T10:13:38.373Z,48.00
2018-10-21T10:16:08.242Z,72.17
2018-10-21T10:18:37.470Z,49.50
2018-10-21T10:21:07.054Z,45.77
2018-10-21T10:23:37.012Z,35.30
2018-10-21T10:26:06.010Z,25.40
2018-10-21T10:28:34.861Z,41.50
2018-10-21T10:31:04.103Z,33.03
2018-10-21T10:33:33.349Z,39.03
2018-10-21T10:36:02.228Z,43.27
2018-10-21T10:38:31.496Z,42.73
2018-10-21T10:41:01.403Z,27.17
2018-10-21T10:43:30.599Z,34.17
2018-10-21T10:45:59.753Z,36.23
2018-10-21T10:48:28.713Z,32.30
2018-10-21T10:50:57.685Z,40.03
2018-10-21T10:53:26.712Z,30.93
2018-10-21T10:55:55.771Z,41.17
2018-10-21T10:58:25.232Z,38.60
2018-10-21T11:00:54.203Z,30.57
2018-10-21T11:03:23.280Z,40.13
2018-10-21T11:05:52.488Z,26.13
2018-10-21T11:08:21.524Z,22.07
2018-10-21T11:10:50.493Z,27.20
2018-10-21T11:13:19.919Z,26.77
2018-10-21T11:15:49.067Z,19.33
2018-10-21T11:18:18.316Z,23.90
2018-10-21T11:20:48.380Z,30.53
2018-10-21T11:23:17.426Z,25.77
2018-10-21T11:25:46.376Z,42.70
2018-10-21T11:28:15.417Z,23.40
2018-10-21T11:30:44.605Z,25.17
2018-10-21T11:33:13.779Z,22.53
2018-10-21T11:35:43.006Z,20.70
2018-10-21T11:38:12.097Z,20.37
2018-10-21T11:40:41.047Z,21.37
2018-10-21T11:43:10.459Z,17.20
2018-10-21T11:45:39.698Z,17.90
2018-10-21T11:48:08.647Z,16.40
2018-10-21T11:50:38.790Z,44.00
2018-10-21T11:53:08.122Z,31.87
2018-10-21T11:55:40.498Z,34.83
2018-10-21T11:58:12.193Z,21.40
2018-10-21T12:00:41.425Z,14.77
2018-10-21T12:03:11.325Z,16.30
2018-10-21T12:05:41.479Z,17.10
2018-10-21T12:08:10.993Z,20.97
2018-10-21T12:10:40.192Z,55.70
2018-10-21T12:13:09.254Z,21.37
2018-10-21T12:15:38.316Z,14.67
2018-10-21T12:18:07.995Z,15.53
2018-10-21T12:20:37.158Z,14.80
2018-10-21T12:23:06.450Z,15.20
2018-10-21T12:25:35.708Z,15.03
2018-10-21T12:28:05.001Z,12.10
2018-10-21T12:30:34.374Z,11.23
2018-10-21T12:33:03.602Z,11.40
2018-10-21T12:35:32.617Z,9.00
2018-10-21T12:38:01.795Z,11.00
2018-10-21T12:40:30.971Z,10.73
2018-10-21T12:42:59.985Z,11.07
2018-10-21T12:45:29.074Z,9.40
2018-10-21T12:47:57.980Z,6.73
2018-10-21T12:50:26.917Z,5.90
2018-10-21T12:52:56.178Z,6.97
2018-10-21T12:55:25.247Z,10.90
2018-10-21T12:57:54.605Z,8.63
2018-10-21T13:00:23.941Z,11.13
2018-10-21T13:02:53.256Z,9.13
2018-10-21T13:05:22.271Z,15.23
2018-10-21T13:07:51.265Z,7.10
2018-10-21T13:10:20.203Z,8.97
2018-10-21T13:12:49.308Z,7.17
2018-10-21T13:15:18.438Z,10.27
2018-10-21T13:17:47.421Z,6.70
2018-10-21T13:20:16.382Z,8.40
2018-10-21T13:22:45.588Z,7.50
2018-10-21T13:25:15.026Z,9.27
2018-10-21T13:27:44.084Z,7.30
2018-10-21T13:30:13.098Z,8.03
2018-10-21T13:32:42.088Z,8.80
2018-10-21T13:35:11.156Z,16.53
2018-10-21T13:37:40.152Z,13.53
2018-10-21T13:40:09.294Z,9.13
2018-10-21T13:42:38.221Z,7.23
2018-10-21T13:45:07.724Z,8.37
2018-10-21T13:47:36.758Z,10.53
2018-10-21T13:50:06.746Z,28.33
2018-10-21T13:52:35.846Z,15.73
2018-10-21T13:55:04.896Z,19.07
2018-10-21T13:57:33.981Z,13.07
2018-10-21T14:00:03.044Z,13.97
2018-10-21T14:02:31.949Z,6.80
2018-10-21T14:05:01.197Z,7.13
2018-10-21T14:07:30.132Z,9.93
2018-10-21T14:09:59.110Z,7.80
2018-10-21T14:12:28.029Z,6.20
2018-10-21T14:14:57.239Z,13.30
2018-10-21T14:17:26.307Z,6.20
2018-10-21T14:19:55.577Z,7.97
2018-10-21T14:22:24.561Z,7.97
2018-10-21T14:24:53.785Z,5.70
2018-10-21T14:27:22.834Z,5.53
2018-10-21T14:29:51.817Z,7.17
2018-10-21T14:32:21.662Z,7.73
2018-10-21T14:34:50.822Z,5.97
2018-10-21T14:37:19.817Z,5.40
2018-10-21T14:39:48.889Z,6.50
2018-10-21T14:42:17.953Z,5.70
2018-10-21T14:44:46.916Z,6.60
2018-10-21T14:47:15.941Z,6.30
2018-10-21T14:49:44.871Z,7.37
2018-10-21T14:52:13.991Z,7.50
2018-10-21T14:54:43.153Z,6.90
2018-10-21T14:57:12.120Z,5.37
2018-10-21T14:59:41.147Z,13.93
2018-10-21T15:02:10.480Z,6.13
2018-10-21T15:04:39.532Z,17.50
2018-10-21T15:07:08.559Z,7.13
2018-10-21T15:09:37.517Z,6.13
2018-10-21T15:12:07.039Z,6.20
2018-10-21T15:14:35.932Z,7.10
2018-10-21T15:17:05.252Z,6.97
2018-10-21T15:19:34.356Z,15.03
2018-10-21T15:22:03.571Z,6.63
2018-10-21T15:24:32.577Z,6.77
2018-10-21T15:27:01.590Z,5.70
2018-10-21T15:29:30.653Z,8.00
2018-10-21T15:32:00.046Z,6.30
2018-10-21T15:34:29.015Z,6.70
2018-10-21T15:36:58.108Z,6.67
2018-10-21T15:39:27.367Z,8.67
2018-10-21T15:41:56.445Z,8.70
2018-10-21T15:44:26.180Z,9.10
2018-10-21T15:46:55.279Z,7.70
2018-10-21T15:49:24.323Z,6.13
2018-10-21T15:51:53.465Z,6.20
2018-10-21T15:54:22.391Z,8.00
2018-10-21T15:56:51.479Z,13.97
2018-10-21T15:59:21.344Z,14.27
2018-10-21T16:01:50.669Z,7.43
2018-10-21T16:04:19.612Z,5.77
2018-10-21T16:06:48.647Z,6.47
2018-10-21T16:09:17.881Z,27.57
2018-10-21T16:11:46.910Z,6.77
2018-10-21T16:14:16.178Z,5.87
2018-10-21T16:16:45.352Z,6.13
2018-10-21T16:19:14.769Z,8.80
2018-10-21T16:21:44.799Z,6.13
2018-10-21T16:24:13.979Z,6.10
2018-10-21T16:26:42.999Z,5.43
2018-10-21T16:29:12.154Z,4.47
2018-10-21T16:31:41.179Z,3.53
2018-10-21T16:34:10.257Z,4.60
2018-10-21T16:36:39.184Z,6.33
2018-10-21T16:39:10.337Z,6.60
2018-10-21T16:41:39.379Z,4.43
2018-10-21T16:44:08.679Z,6.33
2018-10-21T16:46:37.857Z,5.80
2018-10-21T16:49:07.116Z,7.33
2018-10-21T16:51:36.536Z,18.07
2018-10-21T16:54:05.675Z,7.93
2018-10-21T16:56:34.597Z,14.13
2018-10-21T16:59:03.700Z,7.50
2018-10-21T17:01:32.677Z,11.90
2018-10-21T17:04:01.729Z,6.67
2018-10-21T17:06:31.869Z,5.73
2018-10-21T17:09:01.343Z,9.90
2018-10-21T17:11:31.335Z,8.63
2018-10-21T17:14:00.783Z,10.00
2018-10-21T17:16:30.090Z,8.80
2018-10-21T17:18:59.201Z,10.03
2018-10-21T17:21:28.489Z,33.03
2018-10-21T17:23:57.656Z,11.60
2018-10-21T17:26:26.805Z,12.00
2018-10-21T17:28:56.783Z,7.50
2018-10-21T17:31:26.911Z,7.37
2018-10-21T17:33:56.171Z,7.40
2018-10-21T17:36:25.452Z,7.50
2018-10-21T17:38:54.625Z,12.80
2018-10-21T17:41:23.965Z,9.60
2018-10-21T17:43:53.050Z,12.30
2018-10-21T17:46:22.683Z,9.03
2018-10-21T17:48:52.395Z,15.33
2018-10-21T17:51:21.650Z,9.23
2018-10-21T17:53:50.907Z,9.87
2018-10-21T17:56:20.179Z,9.60
2018-10-21T17:58:49.331Z,7.13
2018-10-21T18:01:18.896Z,7.43
2018-10-21T18:03:48.044Z,11.70
2018-10-21T18:06:17.424Z,10.80
2018-10-21T18:08:46.787Z,8.30
2018-10-21T18:11:16.180Z,8.73
2018-10-21T18:13:45.513Z,10.27
2018-10-21T18:16:15.117Z,10.20
2018-10-21T18:18:44.488Z,16.93
2018-10-21T18:21:13.839Z,11.13
2018-10-21T18:23:43.029Z,15.27
2018-10-21T18:26:12.371Z,9.87
2018-10-21T18:28:41.649Z,8.83
2018-10-21T18:31:10.983Z,14.97
2018-10-21T18:33:40.320Z,15.93
2018-10-21T18:36:09.751Z,18.73
2018-10-21T18:38:39.073Z,29.40
2018-10-21T18:41:08.405Z,17.73
2018-10-21T18:43:37.652Z,15.77
2018-10-21T18:46:07.059Z,12.13
2018-10-21T18:48:36.366Z,13.63
2018-10-21T18:51:06.085Z,16.90
2018-10-21T18:53:35.523Z,14.07
2018-10-21T18:56:04.812Z,12.80
2018-10-21T18:58:34.150Z,14.50
2018-10-21T19:01:04.142Z,11.67
2018-10-21T19:03:33.605Z,17.67
2018-10-21T19:06:03.034Z,12.90
2018-10-21T19:08:32.148Z,12.60
2018-10-21T19:11:01.511Z,13.33
2018-10-21T19:13:30.957Z,14.40
2018-10-21T19:16:00.125Z,12.67
2018-10-21T19:18:29.409Z,13.77
2018-10-21T19:21:00.203Z,21.27
2018-10-21T19:23:29.889Z,12.27
2018-10-21T19:26:00.226Z,18.87
2018-10-21T19:28:29.649Z,14.60
2018-10-21T19:30:58.941Z,15.57
2018-10-21T19:33:28.243Z,15.67
2018-10-21T19:35:57.542Z,14.63
2018-10-21T19:38:26.855Z,33.60
2018-10-21T19:40:56.192Z,21.80
2018-10-21T19:43:25.576Z,17.87
2018-10-21T19:45:55.406Z,17.10
2018-10-21T19:48:24.718Z,15.47
2018-10-21T19:50:54.016Z,15.13
2018-10-21T19:53:23.332Z,29.20
2018-10-21T19:55:52.757Z,25.83
2018-10-21T19:58:21.890Z,24.50
2018-10-21T20:00:51.208Z,21.70
2018-10-21T20:03:20.234Z,17.30
2018-10-21T20:05:49.684Z,22.77
2018-10-21T20:08:18.929Z,34.47
2018-10-21T20:10:47.945Z,29.17
2018-10-21T20:13:17.535Z,36.37
2018-10-21T20:15:46.515Z,36.77
2018-10-21T20:18:15.668Z,27.00
2018-10-21T20:20:44.942Z,20.80
2018-10-21T20:23:14.065Z,22.80
2018-10-21T20:25:43.072Z,18.00
2018-10-21T20:28:12.223Z,18.07
2018-10-21T20:30:41.171Z,20.53
2018-10-21T20:33:10.445Z,20.60
2018-10-21T20:35:39.627Z,20.30
2018-10-21T20:38:08.739Z,16.27
2018-10-21T20:40:37.926Z,17.60
2018-10-21T20:43:07.028Z,21.63
2018-10-21T20:45:36.254Z,22.33
2018-10-21T20:48:05.447Z,17.60
2018-10-21T20:50:34.694Z,16.93
2018-10-21T20:53:03.794Z,15.53
2018-10-21T20:55:33.039Z,18.70
2018-10-21T20:58:02.215Z,16.07
2018-10-21T21:00:31.074Z,19.73
2018-10-21T21:03:00.222Z,16.03
2018-10-21T21:05:29.285Z,26.57
2018-10-21T21:07:58.570Z,21.53
2018-10-21T21:10:27.590Z,19.20
2018-10-21T21:12:57.379Z,20.10
2018-10-21T21:15:26.313Z,12.80
2018-10-21T21:17:55.622Z,16.57
2018-10-21T21:20:24.592Z,15.20
2018-10-21T21:22:53.927Z,15.10
2018-10-21T21:25:22.971Z,21.67
2018-10-21T21:27:51.992Z,18.97
2018-10-21T21:30:21.153Z,18.00
2018-10-21T21:32:50.033Z,21.33
2018-10-21T21:35:19.049Z,16.70
2018-10-21T21:37:48.191Z,16.40
2018-10-21T21:40:17.319Z,15.23
2018-10-21T21:42:46.491Z,16.37
2018-10-21T21:45:15.464Z,19.07
2018-10-21T21:47:45.708Z,19.73
2018-10-21T21:50:14.711Z,21.57
2018-10-21T21:52:43.990Z,23.63
2018-10-21T21:55:12.952Z,15.83
2018-10-21T21:57:42.105Z,17.63
2018-10-21T22:00:13.528Z,25.50
2018-10-21T22:02:42.600Z,16.60
2018-10-21T22:05:11.679Z,12.90
2018-10-21T22:07:41.167Z,18.97
2018-10-21T22:10:12.340Z,15.27
2018-10-21T22:12:41.530Z,20.77
2018-10-21T22:15:10.799Z,12.40
2018-10-21T22:17:40.559Z,15.63
2018-10-21T22:20:09.973Z,22.03
2018-10-21T22:22:38.910Z,17.50
2018-10-21T22:25:07.871Z,17.93
2018-10-21T22:27:36.858Z,15.60
2018-10-21T22:30:07.095Z,14.13
2018-10-21T22:32:36.203Z,17.87
2018-10-21T22:35:05.971Z,18.03
2018-10-21T22:37:35.200Z,21.90
2018-10-21T22:40:04.250Z,19.47
2018-10-21T22:42:33.240Z,18.60
2018-10-21T22:45:02.381Z,16.60
2018-10-21T22:47:31.248Z,14.17
2018-10-21T22:50:00.595Z,17.10
2018-10-21T22:52:29.511Z,16.03
2018-10-21T22:54:58.685Z,21.80
2018-10-21T22:57:27.501Z,16.47
2018-10-21T22:59:56.579Z,24.53
2018-10-21T23:02:25.474Z,18.43
2018-10-21T23:04:54.416Z,22.13
2018-10-21T23:07:23.331Z,14.13
2018-10-21T23:09:52.480Z,15.53
2018-10-21T23:12:21.331Z,20.90
2018-10-21T23:14:50.297Z,12.97
2018-10-21T23:17:19.254Z,15.07
2018-10-21T23:19:50.459Z,22.00
2018-10-21T23:22:19.583Z,17.10
2018-10-21T23:24:48.589Z,16.27
2018-10-21T23:27:17.637Z,17.10
2018-10-21T23:29:46.712Z,31.03
2018-10-21T23:32:15.795Z,14.10
2018-10-21T23:34:44.692Z,24.03
2018-10-21T23:37:13.531Z,19.43
2018-10-21T23:39:42.457Z,14.60
2018-10-21T23:42:11.441Z,17.43
2018-10-21T23:44:41.164Z,24.50
2018-10-21T23:47:10.106Z,20.40
2018-10-21T23:49:39.062Z,18.80
2018-10-21T23:52:08.756Z,19.53
2018-10-21T23:54:37.576Z,16.30
2018-10-21T23:57:07.606Z,14.73
2018-10-21T23:59:37.094Z,13.43
